Weather at San Carlos Airport

Public forecast

Using degrees Celsius for public forecast. Weather courtesy of forecast.io.

Closest aviation weather report (METAR) to San Carlos Airport

Closest report is Ignacio Agramonte International Airport, 26.7 nm (49.4 km) NE.

2024/05/29 20:50 (retrieved 1 hour ago)

MUCM 292050Z 33012KT 9000 SCT020CB BKN025 32/23 Q1015

Closest aviation forecast (TAF) to San Carlos Airport

Closest forecast is Ignacio Agramonte International Airport, 26.7 nm (49.4 km) NE.

2024/05/29 18:07 (retrieved 4 hours ago)

TAF MUCM 291700Z 2918/3018 04012KT 9000 SCT020 TEMPO 2919/3001 VRB12KT 3000 TSRA RA SCT018CB BKN020 BECMG 3002/3003 VRB04KT FEW030 PROB30 TEMPO 3007/3012 5000 BR